PWSweather.com
Personal Weather Stations
Station Observations
KCARIDGE3
Ridgecrest, CA 93555

Ridgecrest, CA 93555

Lat: 35.62083817, Lon: -117.6733017

Elevation: 2315

Station Type:

High Low Average
Temperature 100.6°F38.1°F 86.0°F30.0°F 92.5°F33.6°F
Dew Point 60.3°F15.7°F 53.2°F11.8°F 56.8°F13.8°F
Winds 12.1 mph S19.5 mph S 0.9 mph 1.4 mph 6.7 mph 10.8 mph
Wind Gusts 16.1 mph25.9 mph -- 6.8 mph10.9 mph
Humidity 37% 21% 31%
Pressure 0.00 in0.00 in 0.00 in0.00 in -
Precipitation 0.00 in0.00 in - -
Hour Temp Dew Point Humidity Winds Wind Gusts Pressure Precip Precip Rate Daily Precip Total
12:02 AM 84.6°F29.2°C 54.0°F12.2°C 35% 6.0 mph SW9.7 kmh SW 8.1 mph13.0 kmh -338605.1 mb - 0.00 in0.0 mm 0.00 in0.0 mm
12:07 AM 84.6°F29.2°C 54.7°F12.6°C 36% 6.0 mph SW9.7 kmh SW 8.1 mph13.0 kmh -338605.1 mb - 0.00 in0.0 mm 0.00 in0.0 mm
12:12 AM 84.4°F29.1°C 53.8°F12.1°C 35% 6.9 mph WSW11.1 kmh WSW 4.9 mph7.9 kmh -338605.1 mb - 0.00 in0.0 mm 0.00 in0.0 mm
12:17 AM 84.0°F28.9°C 52.7°F11.5°C 34% 6.9 mph WSW11.1 kmh WSW 4.9 mph7.9 kmh -338605.1 mb - 0.00 in0.0 mm 0.00 in0.0 mm
12:22 AM 83.8°F28.8°C 51.6°F10.9°C 33% 6.0 mph WSW9.7 kmh WSW 6.9 mph11.1 kmh -338605.1 mb - 0.00 in0.0 mm 0.00 in0.0 mm
12:27 AM 83.7°F28.7°C 51.4°F10.8°C 33% 6.9 mph WSW11.1 kmh WSW 8.1 mph13.0 kmh -338605.1 mb - 0.00 in0.0 mm 0.00 in0.0 mm
12:32 AM 83.7°F28.7°C 51.4°F10.8°C 33% 6.9 mph WSW11.1 kmh WSW 4.9 mph7.9 kmh -338605.1 mb - 0.00 in0.0 mm 0.00 in0.0 mm
12:37 AM 83.5°F28.6°C 52.2°F11.2°C 34% 6.9 mph WSW11.1 kmh WSW 4.9 mph7.9 kmh -338605.1 mb - 0.00 in0.0 mm 0.00 in0.0 mm
12:42 AM 83.5°F28.6°C 52.2°F11.2°C 34% 4.9 mph SW7.9 kmh SW 4.9 mph7.9 kmh -338605.1 mb - 0.00 in0.0 mm 0.00 in0.0 mm
12:47 AM 83.5°F28.6°C 52.2°F11.2°C 34% 4.0 mph SW6.4 kmh SW 4.0 mph6.4 kmh -338605.1 mb - 0.00 in0.0 mm 0.00 in0.0 mm
12:52 AM 83.1°F28.4°C 51.8°F11.0°C 34% 4.0 mph WSW6.4 kmh WSW 4.9 mph7.9 kmh -338605.1 mb - 0.00 in0.0 mm 0.00 in0.0 mm
12:57 AM 82.9°F28.3°C 51.6°F10.9°C 34% 4.0 mph SW6.4 kmh SW 2.9 mph4.7 kmh -338605.1 mb - 0.00 in0.0 mm 0.00 in0.0 mm
01:02 AM 82.8°F28.2°C 52.3°F11.3°C 35% 4.0 mph SSW6.4 kmh SSW 4.0 mph6.4 kmh -338605.1 mb - 0.00 in0.0 mm 0.00 in0.0 mm
01:07 AM 82.6°F28.1°C 52.2°F11.2°C 35% 4.9 mph SW7.9 kmh SW 2.0 mph3.2 kmh -338605.1 mb - 0.00 in0.0 mm 0.00 in0.0 mm
01:12 AM 82.2°F27.9°C 51.8°F11.0°C 35% 4.0 mph SW6.4 kmh SW 2.9 mph4.7 kmh -338605.1 mb - 0.00 in0.0 mm 0.00 in0.0 mm
01:17 AM 82.0°F27.8°C 52.5°F11.4°C 36% 4.0 mph SW6.4 kmh SW 2.9 mph4.7 kmh -338605.1 mb - 0.00 in0.0 mm 0.00 in0.0 mm
01:22 AM 82.0°F27.8°C 52.5°F11.4°C 36% 4.0 mph SW6.4 kmh SW 4.0 mph6.4 kmh -338605.1 mb - 0.00 in0.0 mm 0.00 in0.0 mm
01:27 AM 81.9°F27.7°C 53.1°F11.7°C 37% 2.9 mph SW4.7 kmh SW 4.9 mph7.9 kmh -338605.1 mb - 0.00 in0.0 mm 0.00 in0.0 mm
01:32 AM 81.7°F27.6°C 52.9°F11.6°C 37% 4.9 mph S7.9 kmh S 4.0 mph6.4 kmh -338605.1 mb - 0.00 in0.0 mm 0.00 in0.0 mm
01:37 AM 81.7°F27.6°C 52.9°F11.6°C 37% 4.9 mph SW7.9 kmh SW 2.0 mph3.2 kmh -338605.1 mb - 0.00 in0.0 mm 0.00 in0.0 mm
01:42 AM 81.7°F27.6°C 53.6°F12.0°C 38% 4.9 mph WSW7.9 kmh WSW 4.0 mph6.4 kmh -338605.1 mb - 0.00 in0.0 mm 0.00 in0.0 mm
01:47 AM 81.7°F27.6°C 54.3°F12.4°C 39% 4.9 mph SW7.9 kmh SW 2.9 mph4.7 kmh -338605.1 mb - 0.00 in0.0 mm 0.00 in0.0 mm
01:52 AM 81.7°F27.6°C 55.0°F12.8°C 40% 4.0 mph S6.4 kmh S 4.9 mph7.9 kmh -338605.1 mb - 0.00 in0.0 mm 0.00 in0.0 mm
01:57 AM 81.7°F27.6°C 55.8°F13.2°C 41% 4.9 mph SW7.9 kmh SW 6.9 mph11.1 kmh -338605.1 mb - 0.00 in0.0 mm 0.00 in0.0 mm
02:02 AM 81.7°F27.6°C 56.3°F13.5°C 42% 6.0 mph SW9.7 kmh SW 6.0 mph9.7 kmh -338605.1 mb - 0.00 in0.0 mm 0.00 in0.0 mm
02:07 AM 81.7°F27.6°C 57.0°F13.9°C 43% 4.9 mph SW7.9 kmh SW 2.9 mph4.7 kmh -338605.1 mb - 0.00 in0.0 mm 0.00 in0.0 mm
02:12 AM 81.7°F27.6°C 57.0°F13.9°C 43% 4.9 mph SW7.9 kmh SW 6.9 mph11.1 kmh -338605.1 mb - 0.00 in0.0 mm 0.00 in0.0 mm
02:17 AM 81.7°F27.6°C 57.6°F14.2°C 44% 6.0 mph SW9.7 kmh SW 6.9 mph11.1 kmh -338605.1 mb - 0.00 in0.0 mm 0.00 in0.0 mm
02:22 AM 81.7°F27.6°C 57.6°F14.2°C 44% 6.0 mph SW9.7 kmh SW 6.0 mph9.7 kmh -338605.1 mb - 0.00 in0.0 mm 0.00 in0.0 mm
02:27 AM 81.5°F27.5°C 58.1°F14.5°C 45% 6.0 mph SW9.7 kmh SW 6.0 mph9.7 kmh -338605.1 mb - 0.00 in0.0 mm 0.00 in0.0 mm
02:32 AM 81.5°F27.5°C 58.6°F14.8°C 46% 4.9 mph SW7.9 kmh SW 6.9 mph11.1 kmh -338605.1 mb - 0.00 in0.0 mm 0.00 in0.0 mm
02:37 AM 81.3°F27.4°C 58.6°F14.8°C 46% 4.9 mph SW7.9 kmh SW 4.0 mph6.4 kmh -338605.1 mb - 0.00 in0.0 mm 0.00 in0.0 mm
02:42 AM 81.3°F27.4°C 58.6°F14.8°C 46% 6.0 mph SW9.7 kmh SW 6.0 mph9.7 kmh -338605.1 mb - 0.00 in0.0 mm 0.00 in0.0 mm
02:47 AM 81.3°F27.4°C 59.2°F15.1°C 47% 6.0 mph WSW9.7 kmh WSW 6.9 mph11.1 kmh -338605.1 mb - 0.00 in0.0 mm 0.00 in0.0 mm
02:52 AM 81.3°F27.4°C 58.6°F14.8°C 46% 6.9 mph SW11.1 kmh SW 4.9 mph7.9 kmh -338605.1 mb - 0.00 in0.0 mm 0.00 in0.0 mm
02:57 AM 81.3°F27.4°C 58.6°F14.8°C 46% 6.9 mph WSW11.1 kmh WSW 4.9 mph7.9 kmh -338605.1 mb - 0.00 in0.0 mm 0.00 in0.0 mm
03:02 AM 81.3°F27.4°C 58.6°F14.8°C 46% 6.9 mph WSW11.1 kmh WSW 8.9 mph14.3 kmh -338605.1 mb - 0.00 in0.0 mm 0.00 in0.0 mm
03:07 AM 81.5°F27.5°C 58.6°F14.8°C 46% 6.9 mph SW11.1 kmh SW 8.9 mph14.3 kmh -338605.1 mb - 0.00 in0.0 mm 0.00 in0.0 mm
03:12 AM 81.5°F27.5°C 58.6°F14.8°C 46% 6.9 mph SW11.1 kmh SW 8.1 mph13.0 kmh -338605.1 mb - 0.00 in0.0 mm 0.00 in0.0 mm
03:17 AM 81.5°F27.5°C 58.6°F14.8°C 46% 8.1 mph WSW13.0 kmh WSW 6.9 mph11.1 kmh -338605.1 mb - 0.00 in0.0 mm 0.00 in0.0 mm
03:22 AM 81.5°F27.5°C 58.6°F14.8°C 46% 6.9 mph WSW11.1 kmh WSW 6.9 mph11.1 kmh -338605.1 mb - 0.00 in0.0 mm 0.00 in0.0 mm
03:27 AM 81.3°F27.4°C 58.6°F14.8°C 46% 6.9 mph WSW11.1 kmh WSW 6.9 mph11.1 kmh -338605.1 mb - 0.00 in0.0 mm 0.00 in0.0 mm
03:32 AM 81.3°F27.4°C 58.6°F14.8°C 46% 6.9 mph W11.1 kmh W 8.1 mph13.0 kmh -338605.1 mb - 0.00 in0.0 mm 0.00 in0.0 mm
03:37 AM 81.9°F27.7°C 58.5°F14.7°C 45% 6.9 mph WSW11.1 kmh WSW 6.0 mph9.7 kmh -338605.1 mb - 0.00 in0.0 mm 0.00 in0.0 mm
03:42 AM 82.0°F27.8°C 57.9°F14.4°C 44% 6.0 mph WNW9.7 kmh WNW 4.9 mph7.9 kmh -338605.1 mb - 0.00 in0.0 mm 0.00 in0.0 mm
03:47 AM 81.7°F27.6°C 57.6°F14.2°C 44% 4.9 mph WSW7.9 kmh WSW 6.0 mph9.7 kmh -338605.1 mb - 0.00 in0.0 mm 0.00 in0.0 mm
03:52 AM 81.3°F27.4°C 57.9°F14.4°C 45% 4.9 mph WSW7.9 kmh WSW 6.0 mph9.7 kmh -338605.1 mb - 0.00 in0.0 mm 0.00 in0.0 mm
03:57 AM 81.1°F27.3°C 57.7°F14.3°C 45% 4.9 mph SW7.9 kmh SW 4.9 mph7.9 kmh -338605.1 mb - 0.00 in0.0 mm 0.00 in0.0 mm
04:02 AM 81.0°F27.2°C 57.6°F14.2°C 45% 6.0 mph WSW9.7 kmh WSW 6.0 mph9.7 kmh -338605.1 mb - 0.00 in0.0 mm 0.00 in0.0 mm
04:07 AM 80.8°F27.1°C 57.4°F14.1°C 45% 6.0 mph SW9.7 kmh SW 4.9 mph7.9 kmh -338605.1 mb - 0.00 in0.0 mm 0.00 in0.0 mm
04:12 AM 80.8°F27.1°C 58.1°F14.5°C 46% 6.0 mph SW9.7 kmh SW 4.9 mph7.9 kmh -338605.1 mb - 0.00 in0.0 mm 0.00 in0.0 mm
04:17 AM 80.4°F26.9°C 57.7°F14.3°C 46% 4.9 mph SW7.9 kmh SW 6.0 mph9.7 kmh -338605.1 mb - 0.00 in0.0 mm 0.00 in0.0 mm
04:22 AM 80.2°F26.8°C 57.6°F14.2°C 46% 4.9 mph SW7.9 kmh SW 4.9 mph7.9 kmh -338605.1 mb - 0.00 in0.0 mm 0.00 in0.0 mm
04:27 AM 80.1°F26.7°C 57.4°F14.1°C 46% 6.0 mph SW9.7 kmh SW 4.0 mph6.4 kmh -338605.1 mb - 0.00 in0.0 mm 0.00 in0.0 mm
04:32 AM 79.9°F26.6°C 57.9°F14.4°C 47% 4.9 mph SW7.9 kmh SW 6.0 mph9.7 kmh -338605.1 mb - 0.00 in0.0 mm 0.00 in0.0 mm
04:37 AM 79.7°F26.5°C 57.7°F14.3°C 47% 4.9 mph SW7.9 kmh SW 6.9 mph11.1 kmh -338605.1 mb - 0.00 in0.0 mm 0.00 in0.0 mm
04:42 AM 79.5°F26.4°C 57.6°F14.2°C 47% 4.9 mph SW7.9 kmh SW 6.0 mph9.7 kmh -338605.1 mb - 0.00 in0.0 mm 0.00 in0.0 mm
04:47 AM 79.3°F26.3°C 57.4°F14.1°C 47% 4.9 mph SW7.9 kmh SW 0.9 mph1.4 kmh -338605.1 mb - 0.00 in0.0 mm 0.00 in0.0 mm
04:52 AM 79.2°F26.2°C 57.2°F14.0°C 47% 4.9 mph SW7.9 kmh SW 2.9 mph4.7 kmh -338605.1 mb - 0.00 in0.0 mm 0.00 in0.0 mm
04:57 AM 79.2°F26.2°C 57.2°F14.0°C 47% 4.0 mph SW6.4 kmh SW 2.9 mph4.7 kmh -338605.1 mb - 0.00 in0.0 mm 0.00 in0.0 mm
05:02 AM 79.0°F26.1°C 57.6°F14.2°C 48% 4.9 mph SSW7.9 kmh SSW 2.9 mph4.7 kmh -338605.1 mb - 0.00 in0.0 mm 0.00 in0.0 mm
05:07 AM 78.6°F25.9°C 57.2°F14.0°C 48% 4.9 mph SW7.9 kmh SW 6.0 mph9.7 kmh -338605.1 mb - 0.00 in0.0 mm 0.00 in0.0 mm
05:12 AM 78.6°F25.9°C 57.2°F14.0°C 48% 4.9 mph SW7.9 kmh SW 4.9 mph7.9 kmh -338605.1 mb - 0.00 in0.0 mm 0.00 in0.0 mm
05:17 AM 78.4°F25.8°C 57.2°F14.0°C 48% 4.0 mph WSW6.4 kmh WSW 4.0 mph6.4 kmh -338605.1 mb - 0.00 in0.0 mm 0.00 in0.0 mm
05:22 AM 78.4°F25.8°C 57.2°F14.0°C 48% 4.0 mph SW6.4 kmh SW 2.0 mph3.2 kmh -338605.1 mb - 0.00 in0.0 mm 0.00 in0.0 mm
05:27 AM 78.3°F25.7°C 57.6°F14.2°C 49% 2.9 mph SW4.7 kmh SW 2.9 mph4.7 kmh -338605.1 mb - 0.00 in0.0 mm 0.00 in0.0 mm
05:32 AM 78.1°F25.6°C 57.4°F14.1°C 49% 2.9 mph SSW4.7 kmh SSW -- -338605.1 mb - 0.00 in0.0 mm 0.00 in0.0 mm
05:37 AM 78.1°F25.6°C 57.9°F14.4°C 50% 0.9 mph WSW1.4 kmh WSW -- -338605.1 mb - 0.00 in0.0 mm 0.00 in0.0 mm
05:42 AM 77.9°F25.5°C 57.7°F14.3°C 50% 0.9 mph WSW1.4 kmh WSW 0.9 mph1.4 kmh -338605.1 mb - 0.00 in0.0 mm 0.00 in0.0 mm
05:47 AM 77.9°F25.5°C 57.2°F14.0°C 49% 0.9 mph W1.4 kmh W 2.0 mph3.2 kmh -338605.1 mb - 0.00 in0.0 mm 0.00 in0.0 mm
05:52 AM 77.9°F25.5°C 57.2°F14.0°C 49% 2.0 mph WSW3.2 kmh WSW 4.0 mph6.4 kmh -338605.1 mb - 0.00 in0.0 mm 0.00 in0.0 mm
05:57 AM 78.1°F25.6°C 56.8°F13.8°C 48% 2.9 mph WSW4.7 kmh WSW 4.0 mph6.4 kmh -338605.1 mb - 0.00 in0.0 mm 0.00 in0.0 mm
06:02 AM 78.1°F25.6°C 56.8°F13.8°C 48% 2.9 mph WSW4.7 kmh WSW 0.9 mph1.4 kmh -338605.1 mb - 0.00 in0.0 mm 0.00 in0.0 mm
06:07 AM 78.1°F25.6°C 57.4°F14.1°C 49% 2.0 mph WSW3.2 kmh WSW 2.0 mph3.2 kmh -338605.1 mb - 0.00 in0.0 mm 0.00 in0.0 mm
06:12 AM 77.9°F25.5°C 57.2°F14.0°C 49% 0.9 mph SW1.4 kmh SW -- -338605.1 mb - 0.00 in0.0 mm 0.00 in0.0 mm
06:17 AM 77.7°F25.4°C 57.6°F14.2°C 50% 0.9 mph SW1.4 kmh SW -- -338605.1 mb - 0.00 in0.0 mm 0.00 in0.0 mm
06:22 AM 77.7°F25.4°C 57.6°F14.2°C 50% Calm Calm -- -338605.1 mb - 0.00 in0.0 mm 0.00 in0.0 mm
06:27 AM 77.5°F25.3°C 57.4°F14.1°C 50% 0.9 mph SSW1.4 kmh SSW 0.9 mph1.4 kmh -338605.1 mb - 0.00 in0.0 mm 0.00 in0.0 mm
06:32 AM 77.5°F25.3°C 57.4°F14.1°C 50% 0.9 mph SSW1.4 kmh SSW -- -338605.1 mb - 0.00 in0.0 mm 0.00 in0.0 mm
06:37 AM 77.4°F25.2°C 57.2°F14.0°C 50% 0.9 mph SSW1.4 kmh SSW 0.9 mph1.4 kmh -338605.1 mb - 0.00 in0.0 mm 0.00 in0.0 mm
06:42 AM 77.4°F25.2°C 57.2°F14.0°C 50% 0.9 mph SSW1.4 kmh SSW 0.9 mph1.4 kmh -338605.1 mb - 0.00 in0.0 mm 0.00 in0.0 mm
06:47 AM 77.2°F25.1°C 58.3°F14.6°C 52% 0.9 mph SSW1.4 kmh SSW -- -338605.1 mb - 0.00 in0.0 mm 0.00 in0.0 mm
06:52 AM 77.2°F25.1°C 58.3°F14.6°C 52% 0.9 mph S1.4 kmh S 2.0 mph3.2 kmh -338605.1 mb - 0.00 in0.0 mm 0.00 in0.0 mm
06:57 AM 77.2°F25.1°C 58.3°F14.6°C 52% 0.9 mph S1.4 kmh S -- -338605.1 mb - 0.00 in0.0 mm 0.00 in0.0 mm
07:02 AM 76.8°F24.9°C 57.9°F14.4°C 52% 0.9 mph S1.4 kmh S -- -338605.1 mb - 0.00 in0.0 mm 0.00 in0.0 mm
07:07 AM 76.6°F24.8°C 58.3°F14.6°C 53% Calm Calm 0.9 mph1.4 kmh -338605.1 mb - 0.00 in0.0 mm 0.00 in0.0 mm
07:12 AM 76.6°F24.8°C 57.7°F14.3°C 52% 0.9 mph S1.4 kmh S 0.9 mph1.4 kmh -338605.1 mb - 0.00 in0.0 mm 0.00 in0.0 mm
07:17 AM 76.8°F24.9°C 58.5°F14.7°C 53% 0.9 mph S1.4 kmh S -- -338605.1 mb - 0.00 in0.0 mm 0.00 in0.0 mm
07:22 AM 76.6°F24.8°C 58.8°F14.9°C 54% Calm Calm -- -338605.1 mb - 0.00 in0.0 mm 0.00 in0.0 mm
07:27 AM 77.0°F25.0°C 58.6°F14.8°C 53% 0.9 mph W1.4 kmh W 0.9 mph1.4 kmh -338605.1 mb - 0.00 in0.0 mm 0.00 in0.0 mm
07:32 AM 77.5°F25.3°C 59.0°F15.0°C 53% 0.9 mph W1.4 kmh W 2.0 mph3.2 kmh -338605.1 mb - 0.00 in0.0 mm 0.00 in0.0 mm
07:37 AM 78.3°F25.7°C 59.2°F15.1°C 52% 0.9 mph W1.4 kmh W -- -338605.1 mb - 0.00 in0.0 mm 0.00 in0.0 mm
07:42 AM 79.2°F26.2°C 59.0°F15.0°C 50% 0.9 mph W1.4 kmh W 0.9 mph1.4 kmh -338605.1 mb - 0.00 in0.0 mm 0.00 in0.0 mm
07:47 AM 80.2°F26.8°C 58.8°F14.9°C 48% 0.9 mph W1.4 kmh W 0.9 mph1.4 kmh -338605.1 mb - 0.00 in0.0 mm 0.00 in0.0 mm
07:52 AM 81.1°F27.3°C 59.0°F15.0°C 47% 0.9 mph W1.4 kmh W -- -338605.1 mb - 0.00 in0.0 mm 0.00 in0.0 mm
07:57 AM 82.4°F28.0°C 59.5°F15.3°C 46% 0.9 mph W1.4 kmh W 0.9 mph1.4 kmh -338605.1 mb - 0.00 in0.0 mm 0.00 in0.0 mm
08:02 AM 83.5°F28.6°C 59.4°F15.2°C 44% 0.9 mph W1.4 kmh W 0.9 mph1.4 kmh -338605.1 mb - 0.00 in0.0 mm 0.00 in0.0 mm
08:07 AM 84.6°F29.2°C 58.3°F14.6°C 41% 2.0 mph SW3.2 kmh SW 2.9 mph4.7 kmh -338605.1 mb - 0.00 in0.0 mm 0.00 in0.0 mm
08:12 AM 85.3°F29.6°C 58.3°F14.6°C 40% 2.9 mph WSW4.7 kmh WSW 4.9 mph7.9 kmh -338605.1 mb - 0.00 in0.0 mm 0.00 in0.0 mm
08:17 AM 85.8°F29.9°C 55.8°F13.2°C 36% 4.9 mph WSW7.9 kmh WSW 6.0 mph9.7 kmh -338605.1 mb - 0.00 in0.0 mm 0.00 in0.0 mm
08:22 AM 86.2°F30.1°C 54.5°F12.5°C 34% 4.9 mph WSW7.9 kmh WSW 6.0 mph9.7 kmh -338605.1 mb - 0.00 in0.0 mm 0.00 in0.0 mm
08:27 AM 86.5°F30.3°C 53.2°F11.8°C 32% 4.9 mph WSW7.9 kmh WSW 6.9 mph11.1 kmh -338605.1 mb - 0.00 in0.0 mm 0.00 in0.0 mm
08:32 AM 87.1°F30.6°C 53.6°F12.0°C 32% 4.9 mph SW7.9 kmh SW 4.9 mph7.9 kmh -338605.1 mb - 0.00 in0.0 mm 0.00 in0.0 mm
08:37 AM 87.4°F30.8°C 54.0°F12.2°C 32% 4.9 mph WSW7.9 kmh WSW 6.0 mph9.7 kmh -338605.1 mb - 0.00 in0.0 mm 0.00 in0.0 mm
08:42 AM 86.9°F30.5°C 54.3°F12.4°C 33% 4.9 mph WSW7.9 kmh WSW 2.9 mph4.7 kmh -338605.1 mb - 0.00 in0.0 mm 0.00 in0.0 mm
08:47 AM 87.3°F30.7°C 53.8°F12.1°C 32% 4.0 mph WSW6.4 kmh WSW 2.9 mph4.7 kmh -338605.1 mb - 0.00 in0.0 mm 0.00 in0.0 mm
08:52 AM 88.0°F31.1°C 53.6°F12.0°C 31% 2.9 mph W4.7 kmh W 4.0 mph6.4 kmh -338605.1 mb - 0.00 in0.0 mm 0.00 in0.0 mm
08:57 AM 88.9°F31.6°C 54.3°F12.4°C 31% 2.9 mph WNW4.7 kmh WNW 4.0 mph6.4 kmh -338605.1 mb - 0.00 in0.0 mm 0.00 in0.0 mm
09:02 AM 89.2°F31.8°C 53.8°F12.1°C 30% 4.0 mph WNW6.4 kmh WNW 0.9 mph1.4 kmh -338605.1 mb - 0.00 in0.0 mm 0.00 in0.0 mm
09:07 AM 89.6°F32.0°C 53.1°F11.7°C 29% 4.0 mph NW6.4 kmh NW 2.9 mph4.7 kmh -338605.1 mb - 0.00 in0.0 mm 0.00 in0.0 mm
09:12 AM 90.0°F32.2°C 54.3°F12.4°C 30% 2.9 mph WNW4.7 kmh WNW 2.0 mph3.2 kmh -338605.1 mb - 0.00 in0.0 mm 0.00 in0.0 mm
09:17 AM 90.3°F32.4°C 54.7°F12.6°C 30% 2.0 mph WNW3.2 kmh WNW 2.9 mph4.7 kmh -338605.1 mb - 0.00 in0.0 mm 0.00 in0.0 mm
09:22 AM 90.3°F32.4°C 54.7°F12.6°C 30% 2.0 mph WNW3.2 kmh WNW 2.0 mph3.2 kmh -338605.1 mb - 0.00 in0.0 mm 0.00 in0.0 mm
09:27 AM 90.7°F32.6°C 55.0°F12.8°C 30% 2.9 mph W4.7 kmh W 2.9 mph4.7 kmh -338605.1 mb - 0.00 in0.0 mm 0.00 in0.0 mm
09:32 AM 90.5°F32.5°C 54.9°F12.7°C 30% 2.9 mph NW4.7 kmh NW 0.9 mph1.4 kmh -338605.1 mb - 0.00 in0.0 mm 0.00 in0.0 mm
09:37 AM 90.9°F32.7°C 54.1°F12.3°C 29% 2.0 mph NW3.2 kmh NW 2.0 mph3.2 kmh -338605.1 mb - 0.00 in0.0 mm 0.00 in0.0 mm
09:42 AM 91.6°F33.1°C 54.9°F12.7°C 29% 2.9 mph NW4.7 kmh NW 4.9 mph7.9 kmh -338605.1 mb - 0.00 in0.0 mm 0.00 in0.0 mm
09:47 AM 91.8°F33.2°C 54.0°F12.2°C 28% 2.9 mph NW4.7 kmh NW 0.9 mph1.4 kmh -338605.1 mb - 0.00 in0.0 mm 0.00 in0.0 mm
09:52 AM 92.7°F33.7°C 53.8°F12.1°C 27% 0.9 mph NW1.4 kmh NW 0.9 mph1.4 kmh -338605.1 mb - 0.00 in0.0 mm 0.00 in0.0 mm
09:57 AM 92.8°F33.8°C 54.9°F12.7°C 28% 0.9 mph NW1.4 kmh NW 4.9 mph7.9 kmh -338605.1 mb - 0.00 in0.0 mm 0.00 in0.0 mm
10:02 AM 92.7°F33.7°C 51.6°F10.9°C 25% 2.0 mph NW3.2 kmh NW 2.0 mph3.2 kmh -338605.1 mb - 0.00 in0.0 mm 0.00 in0.0 mm
10:07 AM 92.8°F33.8°C 52.9°F11.6°C 26% 2.9 mph NW4.7 kmh NW 2.9 mph4.7 kmh -338605.1 mb - 0.00 in0.0 mm 0.00 in0.0 mm
10:12 AM 93.9°F34.4°C 52.7°F11.5°C 25% 2.0 mph N3.2 kmh N 4.0 mph6.4 kmh -338605.1 mb - 0.00 in0.0 mm 0.00 in0.0 mm
10:17 AM 94.8°F34.9°C 53.6°F12.0°C 25% 4.0 mph NE6.4 kmh NE 4.0 mph6.4 kmh -338605.1 mb - 0.00 in0.0 mm 0.00 in0.0 mm
10:22 AM 95.2°F35.1°C 53.8°F12.1°C 25% 4.0 mph NNW6.4 kmh NNW 4.9 mph7.9 kmh -338605.1 mb - 0.00 in0.0 mm 0.00 in0.0 mm
10:27 AM 95.4°F35.2°C 52.9°F11.6°C 24% 4.0 mph NE6.4 kmh NE 0.9 mph1.4 kmh -338605.1 mb - 0.00 in0.0 mm 0.00 in0.0 mm
10:32 AM 95.7°F35.4°C 53.2°F11.8°C 24% 4.0 mph ENE6.4 kmh ENE 6.9 mph11.1 kmh -338605.1 mb - 0.00 in0.0 mm 0.00 in0.0 mm
10:37 AM 96.4°F35.8°C 52.5°F11.4°C 23% 4.0 mph NE6.4 kmh NE 6.0 mph9.7 kmh -338605.1 mb - 0.00 in0.0 mm 0.00 in0.0 mm
10:42 AM 96.6°F35.9°C 52.7°F11.5°C 23% 4.9 mph NNE7.9 kmh NNE 4.9 mph7.9 kmh -338605.1 mb - 0.00 in0.0 mm 0.00 in0.0 mm
10:47 AM 96.4°F35.8°C 52.5°F11.4°C 23% 4.9 mph N7.9 kmh N -- -338605.1 mb - 0.00 in0.0 mm 0.00 in0.0 mm
10:52 AM 96.3°F35.7°C 52.5°F11.4°C 23% 4.0 mph N6.4 kmh N 4.0 mph6.4 kmh -338605.1 mb - 0.00 in0.0 mm 0.00 in0.0 mm
10:57 AM 96.1°F35.6°C 52.3°F11.3°C 23% 2.9 mph NNW4.7 kmh NNW 0.9 mph1.4 kmh -338605.1 mb - 0.00 in0.0 mm 0.00 in0.0 mm
11:02 AM 96.6°F35.9°C 52.7°F11.5°C 23% 2.0 mph NNW3.2 kmh NNW -- -338605.1 mb - 0.00 in0.0 mm 0.00 in0.0 mm
11:07 AM 96.3°F35.7°C 52.5°F11.4°C 23% 2.0 mph NE3.2 kmh NE 2.9 mph4.7 kmh -338605.1 mb - 0.00 in0.0 mm 0.00 in0.0 mm
11:12 AM 96.4°F35.8°C 52.5°F11.4°C 23% 2.0 mph NE3.2 kmh NE -- -338605.1 mb - 0.00 in0.0 mm 0.00 in0.0 mm
11:17 AM 96.6°F35.9°C 52.7°F11.5°C 23% 0.9 mph SE1.4 kmh SE 6.9 mph11.1 kmh -338605.1 mb - 0.00 in0.0 mm 0.00 in0.0 mm
11:22 AM 97.3°F36.3°C 53.4°F11.9°C 23% 2.9 mph SE4.7 kmh SE 4.0 mph6.4 kmh -338605.1 mb - 0.00 in0.0 mm 0.00 in0.0 mm
11:27 AM 97.9°F36.6°C 53.8°F12.1°C 23% 4.9 mph ESE7.9 kmh ESE 4.9 mph7.9 kmh -338605.1 mb - 0.00 in0.0 mm 0.00 in0.0 mm
11:32 AM 98.1°F36.7°C 52.7°F11.5°C 22% 4.9 mph SE7.9 kmh SE 2.0 mph3.2 kmh -338605.1 mb - 0.00 in0.0 mm 0.00 in0.0 mm
11:37 AM 97.9°F36.6°C 52.5°F11.4°C 22% 2.9 mph ENE4.7 kmh ENE 2.0 mph3.2 kmh -338605.1 mb - 0.00 in0.0 mm 0.00 in0.0 mm
11:42 AM 98.8°F37.1°C 53.2°F11.8°C 22% 4.0 mph E6.4 kmh E 6.0 mph9.7 kmh -338605.1 mb - 0.00 in0.0 mm 0.00 in0.0 mm
11:47 AM 99.0°F37.2°C 53.4°F11.9°C 22% 4.0 mph E6.4 kmh E 4.9 mph7.9 kmh -338605.1 mb - 0.00 in0.0 mm 0.00 in0.0 mm
11:52 AM 99.1°F37.3°C 53.6°F12.0°C 22% 2.0 mph ENE3.2 kmh ENE 0.9 mph1.4 kmh -338605.1 mb - 0.00 in0.0 mm 0.00 in0.0 mm
11:57 AM 99.3°F37.4°C 52.5°F11.4°C 21% 2.0 mph NNW3.2 kmh NNW 4.0 mph6.4 kmh -338605.1 mb - 0.00 in0.0 mm 0.00 in0.0 mm
12:02 PM 99.9°F37.7°C 52.9°F11.6°C 21% 4.0 mph NNE6.4 kmh NNE 6.9 mph11.1 kmh -338605.1 mb - 0.00 in0.0 mm 0.00 in0.0 mm
12:07 PM 100.2°F37.9°C 53.2°F11.8°C 21% 6.0 mph NE9.7 kmh NE 4.9 mph7.9 kmh -338605.1 mb - 0.00 in0.0 mm 0.00 in0.0 mm
12:12 PM 99.9°F37.7°C 52.9°F11.6°C 21% 6.0 mph N9.7 kmh N 4.9 mph7.9 kmh -338605.1 mb - 0.00 in0.0 mm 0.00 in0.0 mm
12:17 PM 100.0°F37.8°C 53.1°F11.7°C 21% 4.0 mph ENE6.4 kmh ENE -- -338605.1 mb - 0.00 in0.0 mm 0.00 in0.0 mm
12:22 PM 100.0°F37.8°C 53.1°F11.7°C 21% 2.9 mph E4.7 kmh E -- -338605.1 mb - 0.00 in0.0 mm 0.00 in0.0 mm
12:27 PM 101.1°F38.4°C 54.0°F12.2°C 21% 2.0 mph N3.2 kmh N 4.9 mph7.9 kmh -338605.1 mb - 0.00 in0.0 mm 0.00 in0.0 mm
12:32 PM 101.1°F38.4°C 52.7°F11.5°C 20% 2.9 mph NNW4.7 kmh NNW 2.0 mph3.2 kmh -338605.1 mb - 0.00 in0.0 mm 0.00 in0.0 mm
12:37 PM 101.7°F38.7°C 54.5°F12.5°C 21% 4.0 mph ESE6.4 kmh ESE 6.9 mph11.1 kmh -338605.1 mb - 0.00 in0.0 mm 0.00 in0.0 mm
12:42 PM 102.0°F38.9°C 53.4°F11.9°C 20% 6.0 mph E9.7 kmh E 6.0 mph9.7 kmh -338605.1 mb - 0.00 in0.0 mm 0.00 in0.0 mm
12:47 PM 102.4°F39.1°C 53.6°F12.0°C 20% 6.0 mph NE9.7 kmh NE 4.0 mph6.4 kmh -338605.1 mb - 0.00 in0.0 mm 0.00 in0.0 mm
12:52 PM 102.0°F38.9°C 53.4°F11.9°C 20% 4.9 mph NE7.9 kmh NE 0.9 mph1.4 kmh -338605.1 mb - 0.00 in0.0 mm 0.00 in0.0 mm
12:57 PM 101.1°F38.4°C 54.0°F12.2°C 21% 2.9 mph NW4.7 kmh NW 2.9 mph4.7 kmh -338605.1 mb - 0.00 in0.0 mm 0.00 in0.0 mm
01:02 PM 101.3°F38.5°C 54.1°F12.3°C 21% 2.9 mph 4.7 kmh 4.0 mph6.4 kmh -338605.1 mb - 0.00 in0.0 mm 0.00 in0.0 mm
01:07 PM 101.1°F38.4°C 54.0°F12.2°C 21% 2.9 mph WSW4.7 kmh WSW 6.0 mph9.7 kmh -338605.1 mb - 0.00 in0.0 mm 0.00 in0.0 mm
01:12 PM 101.1°F38.4°C 52.7°F11.5°C 20% 2.0 mph N3.2 kmh N 4.0 mph6.4 kmh -338605.1 mb - 0.00 in0.0 mm 0.00 in0.0 mm
01:17 PM 101.5°F38.6°C 52.9°F11.6°C 20% 2.9 mph N4.7 kmh N 4.0 mph6.4 kmh -338605.1 mb - 0.00 in0.0 mm 0.00 in0.0 mm
01:22 PM 101.8°F38.8°C 53.2°F11.8°C 20% 4.0 mph ENE6.4 kmh ENE 10.1 mph16.3 kmh -338605.1 mb - 0.00 in0.0 mm 0.00 in0.0 mm
01:27 PM 102.7°F39.3°C 52.5°F11.4°C 19% 6.0 mph ESE9.7 kmh ESE 8.9 mph14.3 kmh -338605.1 mb - 0.00 in0.0 mm 0.00 in0.0 mm
01:32 PM 103.5°F39.7°C 53.2°F11.8°C 19% 8.9 mph S14.3 kmh S 6.0 mph9.7 kmh -338605.1 mb - 0.00 in0.0 mm 0.00 in0.0 mm
01:37 PM 103.5°F39.7°C 53.2°F11.8°C 19% 8.1 mph S13.0 kmh S 4.0 mph6.4 kmh -338605.1 mb - 0.00 in0.0 mm 0.00 in0.0 mm
01:42 PM 103.3°F39.6°C 53.1°F11.7°C 19% 4.9 mph SW7.9 kmh SW 11.0 mph17.7 kmh -338605.1 mb - 0.00 in0.0 mm 0.00 in0.0 mm
01:47 PM 103.8°F39.9°C 53.4°F11.9°C 19% 6.9 mph E11.1 kmh E 4.9 mph7.9 kmh -338605.1 mb - 0.00 in0.0 mm 0.00 in0.0 mm
01:52 PM 104.0°F40.0°C 52.2°F11.2°C 18% 4.9 mph NNE7.9 kmh NNE 4.0 mph6.4 kmh -338605.1 mb - 0.00 in0.0 mm 0.00 in0.0 mm
01:57 PM 103.6°F39.8°C 51.8°F11.0°C 18% 2.9 mph NNW4.7 kmh NNW 4.0 mph6.4 kmh -338605.1 mb - 0.00 in0.0 mm 0.00 in0.0 mm
02:02 PM 103.8°F39.9°C 52.0°F11.1°C 18% 4.9 mph E7.9 kmh E 6.9 mph11.1 kmh -338605.1 mb - 0.00 in0.0 mm 0.00 in0.0 mm
02:07 PM 104.4°F40.2°C 52.3°F11.3°C 18% 6.9 mph NNE11.1 kmh NNE 4.0 mph6.4 kmh -338605.1 mb - 0.00 in0.0 mm 0.00 in0.0 mm
02:12 PM 104.4°F40.2°C 52.3°F11.3°C 18% 6.9 mph N11.1 kmh N 6.9 mph11.1 kmh -338605.1 mb - 0.00 in0.0 mm 0.00 in0.0 mm
02:17 PM 104.2°F40.1°C 52.3°F11.3°C 18% 6.0 mph N9.7 kmh N 6.0 mph9.7 kmh -338605.1 mb - 0.00 in0.0 mm 0.00 in0.0 mm
02:22 PM 103.8°F39.9°C 52.0°F11.1°C 18% 6.0 mph E9.7 kmh E 8.9 mph14.3 kmh -338605.1 mb - 0.00 in0.0 mm 0.00 in0.0 mm
02:27 PM 103.6°F39.8°C 51.8°F11.0°C 18% 4.0 mph NNE6.4 kmh NNE 0.9 mph1.4 kmh -338605.1 mb - 0.00 in0.0 mm 0.00 in0.0 mm
02:32 PM 103.1°F39.5°C 52.9°F11.6°C 19% 4.0 mph SE6.4 kmh SE 4.0 mph6.4 kmh -338605.1 mb - 0.00 in0.0 mm 0.00 in0.0 mm
02:37 PM 102.7°F39.3°C 52.5°F11.4°C 19% 2.9 mph 4.7 kmh 0.9 mph1.4 kmh -338605.1 mb - 0.00 in0.0 mm 0.00 in0.0 mm
02:42 PM 103.5°F39.7°C 53.2°F11.8°C 19% 2.9 mph E4.7 kmh E 6.9 mph11.1 kmh -338605.1 mb - 0.00 in0.0 mm 0.00 in0.0 mm
02:47 PM 104.4°F40.2°C 52.3°F11.3°C 18% 4.9 mph ESE7.9 kmh ESE 15.0 mph24.1 kmh -338605.1 mb - 0.00 in0.0 mm 0.00 in0.0 mm
02:52 PM 104.4°F40.2°C 52.3°F11.3°C 18% 8.1 mph ESE13.0 kmh ESE 8.9 mph14.3 kmh -338605.1 mb - 0.00 in0.0 mm 0.00 in0.0 mm
02:57 PM 104.4°F40.2°C 52.3°F11.3°C 18% 8.9 mph E14.3 kmh E 6.9 mph11.1 kmh -338605.1 mb - 0.00 in0.0 mm 0.00 in0.0 mm
03:02 PM 104.7°F40.4°C 52.7°F11.5°C 18% 6.9 mph SE11.1 kmh SE 4.0 mph6.4 kmh -338605.1 mb - 0.00 in0.0 mm 0.00 in0.0 mm
03:07 PM 105.1°F40.6°C 53.1°F11.7°C 18% 6.0 mph SE9.7 kmh SE 2.9 mph4.7 kmh -338605.1 mb - 0.00 in0.0 mm 0.00 in0.0 mm
03:12 PM 104.7°F40.4°C 52.7°F11.5°C 18% 4.0 mph E6.4 kmh E 6.0 mph9.7 kmh -338605.1 mb - 0.00 in0.0 mm 0.00 in0.0 mm
03:17 PM 104.5°F40.3°C 52.5°F11.4°C 18% 2.9 mph NE4.7 kmh NE 4.9 mph7.9 kmh -338605.1 mb - 0.00 in0.0 mm 0.00 in0.0 mm
03:22 PM 104.2°F40.1°C 52.3°F11.3°C 18% 4.0 mph ENE6.4 kmh ENE 4.0 mph6.4 kmh -338605.1 mb - 0.00 in0.0 mm 0.00 in0.0 mm
03:27 PM 103.5°F39.7°C 53.2°F11.8°C 19% 4.0 mph ESE6.4 kmh ESE 11.0 mph17.7 kmh -338605.1 mb - 0.00 in0.0 mm 0.00 in0.0 mm
03:32 PM 103.5°F39.7°C 53.2°F11.8°C 19% 4.9 mph S7.9 kmh S 8.1 mph13.0 kmh -338605.1 mb - 0.00 in0.0 mm 0.00 in0.0 mm
03:37 PM 102.9°F39.4°C 52.7°F11.5°C 19% 6.9 mph SE11.1 kmh SE 11.0 mph17.7 kmh -338605.1 mb - 0.00 in0.0 mm 0.00 in0.0 mm
03:42 PM 102.7°F39.3°C 52.5°F11.4°C 19% 6.0 mph SE9.7 kmh SE 4.0 mph6.4 kmh -338605.1 mb - 0.00 in0.0 mm 0.00 in0.0 mm
03:47 PM 102.4°F39.1°C 52.3°F11.3°C 19% 4.0 mph E6.4 kmh E -- -338605.1 mb - 0.00 in0.0 mm 0.00 in0.0 mm
03:52 PM 101.5°F38.6°C 52.9°F11.6°C 20% 2.0 mph E3.2 kmh E 2.0 mph3.2 kmh -338605.1 mb - 0.00 in0.0 mm 0.00 in0.0 mm
03:57 PM 101.7°F38.7°C 53.1°F11.7°C 20% 4.9 mph ESE7.9 kmh ESE 14.1 mph22.7 kmh -338605.1 mb - 0.00 in0.0 mm 0.00 in0.0 mm
04:02 PM 101.8°F38.8°C 54.5°F12.5°C 21% 8.9 mph ENE14.3 kmh ENE 14.1 mph22.7 kmh -338605.1 mb - 0.00 in0.0 mm 0.00 in0.0 mm
04:07 PM 101.8°F38.8°C 54.5°F12.5°C 21% 12.1 mph E19.5 kmh E 8.1 mph13.0 kmh -338605.1 mb - 0.00 in0.0 mm 0.00 in0.0 mm
04:12 PM 102.0°F38.9°C 54.7°F12.6°C 21% 13.0 mph E20.9 kmh E 14.1 mph22.7 kmh -338605.1 mb - 0.00 in0.0 mm 0.00 in0.0 mm
04:17 PM 102.2°F39.0°C 54.9°F12.7°C 21% 13.0 mph E20.9 kmh E 13.0 mph20.9 kmh -338605.1 mb - 0.00 in0.0 mm 0.00 in0.0 mm
04:22 PM 101.5°F38.6°C 59.2°F15.1°C 25% 14.1 mph E22.7 kmh E 13.0 mph20.9 kmh -338605.1 mb - 0.00 in0.0 mm 0.00 in0.0 mm
04:27 PM 100.0°F37.8°C 59.0°F15.0°C 26% 13.0 mph E20.9 kmh E 13.0 mph20.9 kmh -338605.1 mb - 0.00 in0.0 mm 0.00 in0.0 mm
04:32 PM 99.1°F37.3°C 58.3°F14.6°C 26% 10.1 mph NE16.3 kmh NE 6.9 mph11.1 kmh -338605.1 mb - 0.00 in0.0 mm 0.00 in0.0 mm
04:37 PM 98.8°F37.1°C 59.0°F15.0°C 27% 8.1 mph NE13.0 kmh NE 4.0 mph6.4 kmh -338605.1 mb - 0.00 in0.0 mm 0.00 in0.0 mm
04:42 PM 98.6°F37.0°C 56.7°F13.7°C 25% 6.0 mph NE9.7 kmh NE 4.0 mph6.4 kmh -338605.1 mb - 0.00 in0.0 mm 0.00 in0.0 mm
04:47 PM 99.0°F37.2°C 57.0°F13.9°C 25% 4.9 mph NE7.9 kmh NE 4.9 mph7.9 kmh -338605.1 mb - 0.00 in0.0 mm 0.00 in0.0 mm
04:52 PM 99.9°F37.7°C 55.4°F13.0°C 23% 4.9 mph NNE7.9 kmh NNE 6.0 mph9.7 kmh -338605.1 mb - 0.00 in0.0 mm 0.00 in0.0 mm
04:57 PM 100.4°F38.0°C 53.4°F11.9°C 21% 4.9 mph NNE7.9 kmh NNE 6.9 mph11.1 kmh -338605.1 mb - 0.00 in0.0 mm 0.00 in0.0 mm
05:02 PM 100.6°F38.1°C 54.9°F12.7°C 22% 6.0 mph N9.7 kmh N 4.9 mph7.9 kmh -338605.1 mb - 0.00 in0.0 mm 0.00 in0.0 mm
05:07 PM 100.6°F38.1°C 54.9°F12.7°C 22% 4.9 mph 7.9 kmh 6.0 mph9.7 kmh -338605.1 mb - 0.00 in0.0 mm 0.00 in0.0 mm
05:12 PM 100.4°F38.0°C 53.4°F11.9°C 21% 6.0 mph N9.7 kmh N 6.9 mph11.1 kmh -338605.1 mb - 0.00 in0.0 mm 0.00 in0.0 mm
05:17 PM 100.4°F38.0°C 54.7°F12.6°C 22% 6.0 mph NW9.7 kmh NW 6.9 mph11.1 kmh -338605.1 mb - 0.00 in0.0 mm 0.00 in0.0 mm
05:22 PM 100.6°F38.1°C 53.6°F12.0°C 21% 4.9 mph N7.9 kmh N 6.9 mph11.1 kmh -338605.1 mb - 0.00 in0.0 mm 0.00 in0.0 mm
05:27 PM 100.6°F38.1°C 53.6°F12.0°C 21% 6.0 mph NW9.7 kmh NW 2.9 mph4.7 kmh -338605.1 mb - 0.00 in0.0 mm 0.00 in0.0 mm
05:32 PM 100.4°F38.0°C 53.4°F11.9°C 21% 6.0 mph NNW9.7 kmh NNW 6.9 mph11.1 kmh -338605.1 mb - 0.00 in0.0 mm 0.00 in0.0 mm
05:37 PM 100.0°F37.8°C 54.3°F12.4°C 22% 6.0 mph N9.7 kmh N 8.1 mph13.0 kmh -338605.1 mb - 0.00 in0.0 mm 0.00 in0.0 mm
05:42 PM 100.2°F37.9°C 53.2°F11.8°C 21% 6.0 mph N9.7 kmh N 4.9 mph7.9 kmh -338605.1 mb - 0.00 in0.0 mm 0.00 in0.0 mm
05:47 PM 100.6°F38.1°C 54.9°F12.7°C 22% 4.9 mph N7.9 kmh N 4.0 mph6.4 kmh -338605.1 mb - 0.00 in0.0 mm 0.00 in0.0 mm
05:52 PM 99.7°F37.6°C 59.7°F15.4°C 27% 4.0 mph NE6.4 kmh NE 4.9 mph7.9 kmh -338605.1 mb - 0.00 in0.0 mm 0.00 in0.0 mm
05:57 PM 98.6°F37.0°C 58.8°F14.9°C 27% 4.9 mph SE7.9 kmh SE 12.1 mph19.5 kmh -338605.1 mb - 0.00 in0.0 mm 0.00 in0.0 mm
06:02 PM 97.7°F36.5°C 59.0°F15.0°C 28% 8.1 mph ENE13.0 kmh ENE 13.0 mph20.9 kmh -338605.1 mb - 0.00 in0.0 mm 0.00 in0.0 mm
06:07 PM 96.8°F36.0°C 60.3°F15.7°C 30% 8.9 mph E14.3 kmh E 4.0 mph6.4 kmh -338605.1 mb - 0.00 in0.0 mm 0.00 in0.0 mm
06:12 PM 96.1°F35.6°C 58.6°F14.8°C 29% 6.0 mph NE9.7 kmh NE 6.0 mph9.7 kmh -338605.1 mb - 0.00 in0.0 mm 0.00 in0.0 mm
06:17 PM 95.5°F35.3°C 57.2°F14.0°C 28% 6.0 mph N9.7 kmh N 4.9 mph7.9 kmh -338605.1 mb - 0.00 in0.0 mm 0.00 in0.0 mm
06:22 PM 95.0°F35.0°C 59.5°F15.3°C 31% 4.9 mph NE7.9 kmh NE 4.0 mph6.4 kmh -338605.1 mb - 0.00 in0.0 mm 0.00 in0.0 mm
06:27 PM 94.6°F34.8°C 58.5°F14.7°C 30% 2.9 mph NE4.7 kmh NE 4.0 mph6.4 kmh -338605.1 mb - 0.00 in0.0 mm 0.00 in0.0 mm
06:32 PM 94.8°F34.9°C 57.6°F14.2°C 29% 2.9 mph NE4.7 kmh NE 6.0 mph9.7 kmh -338605.1 mb - 0.00 in0.0 mm 0.00 in0.0 mm
06:37 PM 94.8°F34.9°C 57.6°F14.2°C 29% 2.9 mph NNE4.7 kmh NNE 2.0 mph3.2 kmh -338605.1 mb - 0.00 in0.0 mm 0.00 in0.0 mm
06:42 PM 94.8°F34.9°C 58.5°F14.7°C 30% 2.0 mph NNW3.2 kmh NNW 2.9 mph4.7 kmh -338605.1 mb - 0.00 in0.0 mm 0.00 in0.0 mm
06:47 PM 94.6°F34.8°C 58.5°F14.7°C 30% 2.9 mph 4.7 kmh 8.1 mph13.0 kmh -338605.1 mb - 0.00 in0.0 mm 0.00 in0.0 mm
06:52 PM 95.2°F35.1°C 57.0°F13.9°C 28% 4.0 mph N6.4 kmh N 4.0 mph6.4 kmh -338605.1 mb - 0.00 in0.0 mm 0.00 in0.0 mm
06:57 PM 95.5°F35.3°C 55.2°F12.9°C 26% 4.9 mph NE7.9 kmh NE 4.0 mph6.4 kmh -338605.1 mb - 0.00 in0.0 mm 0.00 in0.0 mm
07:02 PM 96.1°F35.6°C 55.6°F13.1°C 26% 4.9 mph NNE7.9 kmh NNE 4.0 mph6.4 kmh -338605.1 mb - 0.00 in0.0 mm 0.00 in0.0 mm
07:07 PM 96.1°F35.6°C 56.7°F13.7°C 27% 4.0 mph NNE6.4 kmh NNE 2.9 mph4.7 kmh -338605.1 mb - 0.00 in0.0 mm 0.00 in0.0 mm
07:12 PM 95.9°F35.5°C 56.5°F13.6°C 27% 4.0 mph NNE6.4 kmh NNE 2.9 mph4.7 kmh -338605.1 mb - 0.00 in0.0 mm 0.00 in0.0 mm
07:17 PM 95.5°F35.3°C 57.2°F14.0°C 28% 2.9 mph WSW4.7 kmh WSW 0.9 mph1.4 kmh -338605.1 mb - 0.00 in0.0 mm 0.00 in0.0 mm
07:22 PM 95.2°F35.1°C 55.9°F13.3°C 27% 2.9 mph NNE4.7 kmh NNE 0.9 mph1.4 kmh -338605.1 mb - 0.00 in0.0 mm 0.00 in0.0 mm
07:27 PM 94.8°F34.9°C 55.6°F13.1°C 27% 4.0 mph S6.4 kmh S 4.9 mph7.9 kmh -338605.1 mb - 0.00 in0.0 mm 0.00 in0.0 mm
07:32 PM 94.6°F34.8°C 56.5°F13.6°C 28% 6.0 mph SSW9.7 kmh SSW 8.1 mph13.0 kmh -338605.1 mb - 0.00 in0.0 mm 0.00 in0.0 mm
07:37 PM 94.6°F34.8°C 57.4°F14.1°C 29% 6.9 mph SW11.1 kmh SW 12.1 mph19.5 kmh -338605.1 mb - 0.00 in0.0 mm 0.00 in0.0 mm
07:42 PM 94.3°F34.6°C 57.2°F14.0°C 29% 8.1 mph SSW13.0 kmh SSW 6.9 mph11.1 kmh -338605.1 mb - 0.00 in0.0 mm 0.00 in0.0 mm
07:47 PM 94.1°F34.5°C 57.0°F13.9°C 29% 8.9 mph SW14.3 kmh SW 6.9 mph11.1 kmh -338605.1 mb - 0.00 in0.0 mm 0.00 in0.0 mm
07:52 PM 93.9°F34.4°C 56.8°F13.8°C 29% 8.9 mph S14.3 kmh S 11.0 mph17.7 kmh -338605.1 mb - 0.00 in0.0 mm 0.00 in0.0 mm
07:57 PM 93.7°F34.3°C 56.7°F13.7°C 29% 11.0 mph S17.7 kmh S 10.1 mph16.3 kmh -338605.1 mb - 0.00 in0.0 mm 0.00 in0.0 mm
08:02 PM 93.6°F34.2°C 57.4°F14.1°C 30% 10.1 mph S16.3 kmh S 8.9 mph14.3 kmh -338605.1 mb - 0.00 in0.0 mm 0.00 in0.0 mm
08:07 PM 93.4°F34.1°C 57.4°F14.1°C 30% 8.1 mph SW13.0 kmh SW 6.0 mph9.7 kmh -338605.1 mb - 0.00 in0.0 mm 0.00 in0.0 mm
08:12 PM 93.0°F33.9°C 57.0°F13.9°C 30% 8.1 mph S13.0 kmh S 11.0 mph17.7 kmh -338605.1 mb - 0.00 in0.0 mm 0.00 in0.0 mm
08:17 PM 92.8°F33.8°C 57.7°F14.3°C 31% 8.9 mph SSW14.3 kmh SSW 11.0 mph17.7 kmh -338605.1 mb - 0.00 in0.0 mm 0.00 in0.0 mm
08:22 PM 92.5°F33.6°C 57.4°F14.1°C 31% 8.9 mph S14.3 kmh S 6.9 mph11.1 kmh -338605.1 mb - 0.00 in0.0 mm 0.00 in0.0 mm
08:27 PM 92.1°F33.4°C 58.1°F14.5°C 32% 8.9 mph S14.3 kmh S 8.9 mph14.3 kmh -338605.1 mb - 0.00 in0.0 mm 0.00 in0.0 mm
08:32 PM 92.1°F33.4°C 58.1°F14.5°C 32% 10.1 mph S16.3 kmh S 11.0 mph17.7 kmh -338605.1 mb - 0.00 in0.0 mm 0.00 in0.0 mm
08:37 PM 91.9°F33.3°C 58.6°F14.8°C 33% 12.1 mph S19.5 kmh S 16.1 mph25.9 kmh -338605.1 mb - 0.00 in0.0 mm 0.00 in0.0 mm
08:42 PM 91.8°F33.2°C 58.6°F14.8°C 33% 11.0 mph S17.7 kmh S 4.0 mph6.4 kmh -338605.1 mb - 0.00 in0.0 mm 0.00 in0.0 mm
08:47 PM 91.4°F33.0°C 58.3°F14.6°C 33% 8.9 mph S14.3 kmh S 12.1 mph19.5 kmh -338605.1 mb - 0.00 in0.0 mm 0.00 in0.0 mm
08:52 PM 91.2°F32.9°C 58.1°F14.5°C 33% 8.9 mph SSW14.3 kmh SSW 8.9 mph14.3 kmh -338605.1 mb - 0.00 in0.0 mm 0.00 in0.0 mm
08:57 PM 91.0°F32.8°C 57.9°F14.4°C 33% 10.1 mph S16.3 kmh S 6.9 mph11.1 kmh -338605.1 mb - 0.00 in0.0 mm 0.00 in0.0 mm
09:02 PM 90.9°F32.7°C 58.6°F14.8°C 34% 10.1 mph SSW16.3 kmh SSW 8.1 mph13.0 kmh -338605.1 mb - 0.00 in0.0 mm 0.00 in0.0 mm
09:07 PM 90.7°F32.6°C 58.5°F14.7°C 34% 10.1 mph SW16.3 kmh SW 14.1 mph22.7 kmh -338605.1 mb - 0.00 in0.0 mm 0.00 in0.0 mm
09:12 PM 90.3°F32.4°C 58.1°F14.5°C 34% 10.1 mph SSW16.3 kmh SSW 13.0 mph20.9 kmh -338605.1 mb - 0.00 in0.0 mm 0.00 in0.0 mm
09:17 PM 90.1°F32.3°C 57.9°F14.4°C 34% 11.0 mph SW17.7 kmh SW 6.9 mph11.1 kmh -338605.1 mb - 0.00 in0.0 mm 0.00 in0.0 mm
09:22 PM 90.1°F32.3°C 57.9°F14.4°C 34% 11.0 mph SW17.7 kmh SW 10.1 mph16.3 kmh -338605.1 mb - 0.00 in0.0 mm 0.00 in0.0 mm
09:27 PM 89.8°F32.1°C 57.7°F14.3°C 34% 11.0 mph SW17.7 kmh SW 8.9 mph14.3 kmh -338605.1 mb - 0.00 in0.0 mm 0.00 in0.0 mm
09:32 PM 89.8°F32.1°C 57.7°F14.3°C 34% 11.0 mph SW17.7 kmh SW 13.0 mph20.9 kmh -338605.1 mb - 0.00 in0.0 mm 0.00 in0.0 mm
09:37 PM 89.4°F31.9°C 57.4°F14.1°C 34% 10.1 mph SW16.3 kmh SW 11.0 mph17.7 kmh -338605.1 mb - 0.00 in0.0 mm 0.00 in0.0 mm
09:42 PM 89.2°F31.8°C 57.2°F14.0°C 34% 10.1 mph S16.3 kmh S 12.1 mph19.5 kmh -338605.1 mb - 0.00 in0.0 mm 0.00 in0.0 mm
09:47 PM 89.1°F31.7°C 57.0°F13.9°C 34% 10.1 mph SSW16.3 kmh SSW 6.9 mph11.1 kmh -338605.1 mb - 0.00 in0.0 mm 0.00 in0.0 mm
09:52 PM 89.2°F31.8°C 57.2°F14.0°C 34% 10.1 mph S16.3 kmh S 8.1 mph13.0 kmh -338605.1 mb - 0.00 in0.0 mm 0.00 in0.0 mm
09:57 PM 89.2°F31.8°C 57.2°F14.0°C 34% 8.9 mph S14.3 kmh S 8.1 mph13.0 kmh -338605.1 mb - 0.00 in0.0 mm 0.00 in0.0 mm
10:02 PM 89.2°F31.8°C 57.2°F14.0°C 34% 8.1 mph S13.0 kmh S 4.9 mph7.9 kmh -338605.1 mb - 0.00 in0.0 mm 0.00 in0.0 mm
10:07 PM 89.1°F31.7°C 57.0°F13.9°C 34% 6.9 mph SSE11.1 kmh SSE 4.0 mph6.4 kmh -338605.1 mb - 0.00 in0.0 mm 0.00 in0.0 mm
10:12 PM 88.5°F31.4°C 56.5°F13.6°C 34% 6.9 mph SSW11.1 kmh SSW 8.1 mph13.0 kmh -338605.1 mb - 0.00 in0.0 mm 0.00 in0.0 mm
10:17 PM 88.5°F31.4°C 56.5°F13.6°C 34% 10.1 mph S16.3 kmh S 11.0 mph17.7 kmh -338605.1 mb - 0.00 in0.0 mm 0.00 in0.0 mm
10:22 PM 88.7°F31.5°C 56.7°F13.7°C 34% 11.0 mph S17.7 kmh S 8.9 mph14.3 kmh -338605.1 mb - 0.00 in0.0 mm 0.00 in0.0 mm
10:27 PM 88.9°F31.6°C 56.8°F13.8°C 34% 11.0 mph S17.7 kmh S 16.1 mph25.9 kmh -338605.1 mb - 0.00 in0.0 mm 0.00 in0.0 mm
10:32 PM 88.7°F31.5°C 56.7°F13.7°C 34% 10.1 mph S16.3 kmh S 8.9 mph14.3 kmh -338605.1 mb - 0.00 in0.0 mm 0.00 in0.0 mm
10:37 PM 88.3°F31.3°C 56.5°F13.6°C 34% 8.9 mph SSW14.3 kmh SSW 6.9 mph11.1 kmh -338605.1 mb - 0.00 in0.0 mm 0.00 in0.0 mm
10:42 PM 88.2°F31.2°C 56.3°F13.5°C 34% 8.1 mph SSW13.0 kmh SSW 10.1 mph16.3 kmh -338605.1 mb - 0.00 in0.0 mm 0.00 in0.0 mm
10:47 PM 88.2°F31.2°C 56.3°F13.5°C 34% 6.9 mph SW11.1 kmh SW 8.1 mph13.0 kmh -338605.1 mb - 0.00 in0.0 mm 0.00 in0.0 mm
10:52 PM 88.0°F31.1°C 56.1°F13.4°C 34% 4.9 mph SW7.9 kmh SW 4.9 mph7.9 kmh -338605.1 mb - 0.00 in0.0 mm 0.00 in0.0 mm
10:57 PM 87.8°F31.0°C 55.9°F13.3°C 34% 4.0 mph SSW6.4 kmh SSW 2.9 mph4.7 kmh -338605.1 mb - 0.00 in0.0 mm 0.00 in0.0 mm
11:02 PM 87.4°F30.8°C 55.6°F13.1°C 34% 4.0 mph S6.4 kmh S 4.0 mph6.4 kmh -338605.1 mb - 0.00 in0.0 mm 0.00 in0.0 mm
11:07 PM 87.3°F30.7°C 55.4°F13.0°C 34% 4.0 mph S6.4 kmh S 2.9 mph4.7 kmh -338605.1 mb - 0.00 in0.0 mm 0.00 in0.0 mm
11:12 PM 86.9°F30.5°C 55.9°F13.3°C 35% 4.9 mph SSE7.9 kmh SSE 6.0 mph9.7 kmh -338605.1 mb - 0.00 in0.0 mm 0.00 in0.0 mm
11:17 PM 86.9°F30.5°C 55.9°F13.3°C 35% 4.9 mph SSE7.9 kmh SSE 2.9 mph4.7 kmh -338605.1 mb - 0.00 in0.0 mm 0.00 in0.0 mm
11:22 PM 86.7°F30.4°C 56.7°F13.7°C 36% 4.0 mph SE6.4 kmh SE 2.9 mph4.7 kmh -338605.1 mb - 0.00 in0.0 mm 0.00 in0.0 mm
11:27 PM 86.5°F30.3°C 56.5°F13.6°C 36% 2.0 mph SE3.2 kmh SE -- -338605.1 mb - 0.00 in0.0 mm 0.00 in0.0 mm
11:32 PM 86.5°F30.3°C 57.2°F14.0°C 37% 0.9 mph SE1.4 kmh SE 0.9 mph1.4 kmh -338605.1 mb - 0.00 in0.0 mm 0.00 in0.0 mm
11:37 PM 86.5°F30.3°C 56.5°F13.6°C 36% 0.9 mph E1.4 kmh E 0.9 mph1.4 kmh -338605.1 mb - 0.00 in0.0 mm 0.00 in0.0 mm
11:42 PM 86.4°F30.2°C 56.3°F13.5°C 36% 0.9 mph ESE1.4 kmh ESE 0.9 mph1.4 kmh -338605.1 mb - 0.00 in0.0 mm 0.00 in0.0 mm
11:47 PM 86.2°F30.1°C 56.1°F13.4°C 36% 2.0 mph SE3.2 kmh SE 4.0 mph6.4 kmh -338605.1 mb - 0.00 in0.0 mm 0.00 in0.0 mm
11:52 PM 86.0°F30.0°C 55.2°F12.9°C 35% 2.9 mph SSE4.7 kmh SSE 6.0 mph9.7 kmh -338605.1 mb - 0.00 in0.0 mm 0.00 in0.0 mm
11:57 PM 86.0°F30.0°C 55.2°F12.9°C 35% 6.0 mph S9.7 kmh S 6.9 mph11.1 kmh -338605.1 mb - 0.00 in0.0 mm 0.00 in0.0 mm